Time;durP1;ratioP1;P1;durP2;ratioP2;P2;SDS_P1;SDS_P2;PMS_P1;PMS_P2;Temp;Humidity;BMP_temperature;BMP_pressure;BME280_temperature;BME280_humidity;BME280_pressure;Samples;Min_cycle;Max_cycle;Signal;HPM_P1;HPM_P2
2023/01/20 00:00:38;;;;;;;6.45;5.95;;;1.80;99.90;;;;;;5017237;28;20045;-73
2023/01/20 00:03:04;;;;;;;7.57;6.78;;;1.80;99.90;;;;;;5011729;28;20031;-73
2023/01/20 00:05:29;;;;;;;7.55;6.88;;;1.80;99.90;;;;;;5016382;28;20034;-73
2023/01/20 00:07:55;;;;;;;7.38;6.70;;;1.80;99.90;;;;;;5008582;28;20152;-73
2023/01/20 00:10:21;;;;;;;7.63;6.93;;;1.80;99.90;;;;;;5010651;28;20049;-73
2023/01/20 00:12:46;;;;;;;8.70;6.30;;;1.80;99.90;;;;;;5010094;28;20034;-73
2023/01/20 00:15:12;;;;;;;6.05;5.55;;;1.80;99.90;;;;;;5010752;28;20404;-74
2023/01/20 00:17:38;;;;;;;7.30;6.60;;;1.80;99.90;;;;;;5010492;28;20037;-74
2023/01/20 00:20:04;;;;;;;6.85;6.25;;;1.80;99.90;;;;;;5015718;28;20037;-73
2023/01/20 00:22:30;;;;;;;7.35;6.68;;;1.80;99.90;;;;;;5010938;28;20022;-74
2023/01/20 00:24:55;;;;;;;6.07;5.63;;;1.90;99.90;;;;;;5012097;28;20628;-73
2023/01/20 00:27:21;;;;;;;6.18;5.78;;;1.90;99.90;;;;;;5012492;28;20026;-73
2023/01/20 00:29:47;;;;;;;6.55;6.05;;;1.80;99.90;;;;;;5014173;28;20424;-74
2023/01/20 00:32:12;;;;;;;7.38;6.40;;;1.90;99.90;;;;;;5013128;28;20029;-74
2023/01/20 00:34:38;;;;;;;6.75;6.18;;;1.90;99.90;;;;;;5015270;28;20033;-74
2023/01/20 00:37:04;;;;;;;7.25;6.55;;;1.90;99.90;;;;;;5014427;28;20018;-74
2023/01/20 00:39:30;;;;;;;7.18;6.57;;;1.80;99.90;;;;;;5016492;28;20391;-74
2023/01/20 00:41:55;;;;;;;7.18;6.68;;;1.90;99.90;;;;;;5014576;28;20030;-74
2023/01/20 00:44:21;;;;;;;7.45;6.85;;;1.90;99.90;;;;;;5015374;28;20057;-74
2023/01/20 00:46:47;;;;;;;7.18;6.57;;;1.90;99.90;;;;;;5014762;28;20084;-74
2023/01/20 00:49:13;;;;;;;7.15;6.55;;;1.90;99.90;;;;;;5010018;28;20030;-74
2023/01/20 00:51:38;;;;;;;7.60;6.90;;;1.90;99.90;;;;;;5014280;28;20041;-74
2023/01/20 00:54:04;;;;;;;6.80;6.30;;;1.90;99.90;;;;;;5008573;28;20037;-74
2023/01/20 00:56:30;;;;;;;8.77;7.13;;;1.90;99.90;;;;;;5015684;28;20490;-73
2023/01/20 00:58:55;;;;;;;6.72;6.07;;;1.90;99.90;;;;;;5009872;28;20026;-74
2023/01/20 01:01:22;;;;;;;6.75;6.25;;;1.90;99.90;;;;;;5016683;28;20068;-74
2023/01/20 01:03:48;;;;;;;6.63;6.05;;;1.90;99.90;;;;;;5010181;28;20034;-72
2023/01/20 01:06:16;;;;;;;6.90;6.20;;;1.90;99.90;;;;;;5015859;28;20394;-73
2023/01/20 01:08:43;;;;;;;6.70;6.10;;;1.90;99.90;;;;;;5010292;28;20033;-73
2023/01/20 01:11:10;;;;;;;6.18;5.68;;;1.90;99.90;;;;;;5015761;28;20842;-73
2023/01/20 01:13:37;;;;;;;5.82;5.35;;;1.90;99.90;;;;;;5011162;28;20053;-73
2023/01/20 01:16:10;;;;;;;7.00;6.32;;;1.90;99.90;;;;;;5015846;28;20026;-75
2023/01/20 01:18:36;;;;;;;6.57;6.07;;;1.90;99.90;;;;;;5012105;28;20018;-75
2023/01/20 01:21:10;;;;;;;7.15;6.47;;;1.90;99.90;;;;;;5017028;28;20028;-76
2023/01/20 01:23:36;;;;;;;6.13;5.63;;;1.90;99.90;;;;;;5014053;28;20022;-75
2023/01/20 01:26:02;;;;;;;12.43;5.93;;;1.90;99.90;;;;;;5018135;28;20030;-75
2023/01/20 01:28:27;;;;;;;6.75;6.15;;;1.90;99.90;;;;;;5014878;28;20034;-75
2023/01/20 01:30:53;;;;;;;9.27;6.53;;;1.90;99.90;;;;;;5017852;28;20033;-75
2023/01/20 01:33:18;;;;;;;6.40;5.90;;;1.90;99.90;;;;;;5015874;28;20089;-75
2023/01/20 01:35:56;;;;;;;9.05;6.53;;;1.90;99.90;;;;;;5018866;28;20587;-75
2023/01/20 01:38:22;;;;;;;6.43;5.93;;;2.00;99.90;;;;;;5013893;28;20018;-76
2023/01/20 01:40:52;;;;;;;7.43;6.28;;;1.90;99.90;;;;;;5020014;28;20033;-76
2023/01/20 01:43:24;;;;;;;7.07;6.50;;;2.00;99.90;;;;;;5010857;28;20025;-75
2023/01/20 01:45:50;;;;;;;6.28;5.53;;;2.00;99.90;;;;;;5029880;28;20029;-73
2023/01/20 01:48:18;;;;;;;6.10;5.60;;;2.00;99.90;;;;;;5011112;28;20524;-73
2023/01/20 01:50:50;;;;;;;6.38;5.78;;;2.00;99.90;;;;;;5018600;28;20125;-73
2023/01/20 01:53:16;;;;;;;7.25;6.65;;;1.90;99.90;;;;;;5011480;28;20121;-73
2023/01/20 01:55:52;;;;;;;7.20;6.60;;;1.90;99.90;;;;;;5019636;28;20070;-73
2023/01/20 01:58:23;;;;;;;6.43;5.93;;;2.00;99.90;;;;;;5015740;28;20030;-75
2023/01/20 02:00:49;;;;;;;6.70;6.10;;;1.90;99.90;;;;;;5019333;28;20021;-74
2023/01/20 02:03:15;;;;;;;5.93;5.53;;;1.90;99.90;;;;;;5010375;28;20038;-75
2023/01/20 02:05:42;;;;;;;6.75;6.25;;;1.90;99.90;;;;;;5012496;28;20548;-75
2023/01/20 02:08:08;;;;;;;5.95;5.55;;;1.90;99.90;;;;;;5010497;28;20021;-75
2023/01/20 02:10:34;;;;;;;5.88;5.45;;;1.90;99.90;;;;;;5014123;28;20103;-76
2023/01/20 02:13:00;;;;;;;5.25;4.85;;;1.90;99.90;;;;;;5012590;28;20034;-73
2023/01/20 02:16:08;;;;;;;6.45;5.95;;;1.90;99.90;;;;;;5013515;28;20029;-73
2023/01/20 02:19:06;;;;;;;5.80;5.40;;;1.90;99.90;;;;;;5011953;28;20048;-75
2023/01/20 02:21:44;;;;;;;6.40;5.85;;;2.00;99.90;;;;;;5017097;28;20402;-76
2023/01/20 02:24:16;;;;;;;6.10;5.60;;;1.90;99.90;;;;;;5015366;28;20033;-73
2023/01/20 02:26:54;;;;;;;6.90;6.30;;;2.00;99.90;;;;;;5012668;28;20024;-73
2023/01/20 02:29:34;;;;;;;7.78;6.97;;;2.00;99.90;;;;;;5014704;28;20486;-75
2023/01/20 02:32:18;;;;;;;7.55;6.95;;;2.00;99.90;;;;;;5009606;28;20022;-75
2023/01/20 02:34:58;;;;;;;6.65;6.10;;;2.00;99.90;;;;;;5016205;28;20104;-75
2023/01/20 02:37:42;;;;;;;6.55;6.05;;;2.00;99.90;;;;;;5016012;28;20037;-76
2023/01/20 02:40:22;;;;;;;6.10;5.60;;;2.00;99.90;;;;;;5011085;28;20022;-75
2023/01/20 02:42:54;;;;;;;5.97;5.50;;;2.10;99.90;;;;;;5013924;28;20109;-75
2023/01/20 02:45:28;;;;;;;6.70;6.20;;;2.10;99.90;;;;;;5013635;28;20552;-73
2023/01/20 02:48:04;;;;;;;5.75;5.32;;;2.10;99.90;;;;;;5013919;28;20050;-76
2023/01/20 02:50:52;;;;;;;6.18;5.68;;;2.10;99.90;;;;;;5016751;28;20050;-76
2023/01/20 02:53:21;;;;;;;6.55;5.95;;;2.10;99.90;;;;;;5013258;28;20029;-75
2023/01/20 02:55:48;;;;;;;6.82;6.22;;;2.10;99.90;;;;;;5018747;28;20033;-76
2023/01/20 02:58:36;;;;;;;5.70;5.30;;;2.10;99.90;;;;;;5011689;28;20053;-74
2023/01/20 03:01:08;;;;;;;6.57;5.97;;;2.10;99.90;;;;;;5010342;28;20025;-74
2023/01/20 03:03:37;;;;;;;5.97;5.47;;;2.10;99.90;;;;;;5010866;28;20478;-74
2023/01/20 03:06:09;;;;;;;6.63;6.03;;;2.10;99.90;;;;;;5018586;28;20053;-74
2023/01/20 03:08:38;;;;;;;6.40;5.90;;;2.20;99.90;;;;;;5010877;28;20053;-74
2023/01/20 03:11:07;;;;;;;7.03;6.33;;;2.20;99.90;;;;;;5017265;28;20042;-75
2023/01/20 03:13:48;;;;;;;8.68;6.45;;;2.20;99.90;;;;;;5011929;28;20312;-74
2023/01/20 03:16:17;;;;;;;6.43;5.68;;;2.20;99.90;;;;;;5016079;28;20456;-76
2023/01/20 03:18:44;;;;;;;7.10;5.80;;;2.20;99.90;;;;;;5009495;28;20038;-76
2023/01/20 03:21:10;;;;;;;7.05;6.32;;;2.20;99.90;;;;;;5015641;28;20029;-76
2023/01/20 03:23:50;;;;;;;6.32;5.63;;;2.20;99.90;;;;;;5003903;28;20073;-74
2023/01/20 03:26:17;;;;;;;7.63;6.65;;;2.10;99.90;;;;;;5016087;28;20482;-74
2023/01/20 03:28:44;;;;;;;6.82;6.05;;;2.10;99.90;;;;;;5003491;28;20031;-74
2023/01/20 03:31:35;;;;;;;6.45;5.85;;;2.10;99.90;;;;;;5017218;28;20018;-74
2023/01/20 03:34:02;;;;;;;;;;;2.10;99.90;;;;;;5015455;28;20108;-74
2023/01/20 03:36:30;;;;;;;6.75;6.10;;;2.10;99.90;;;;;;5016088;28;19913;-74
2023/01/20 03:38:58;;;;;;;6.93;6.32;;;2.10;99.90;;;;;;5014050;28;20088;-73
2023/01/20 03:41:38;;;;;;;5.78;5.28;;;2.10;99.90;;;;;;5018001;28;20017;-76
2023/01/20 03:44:07;;;;;;;6.53;5.93;;;2.10;99.90;;;;;;5009656;28;20028;-75
2023/01/20 03:47:11;;;;;;;7.78;6.53;;;2.10;99.90;;;;;;5015993;28;20068;-76
2023/01/20 03:49:55;;;;;;;7.43;6.60;;;2.10;99.90;;;;;;5015375;28;20034;-77
2023/01/20 03:52:38;;;;;;;5.93;5.43;;;2.00;99.90;;;;;;5012484;28;20030;-77
2023/01/20 03:55:10;;;;;;;8.32;6.45;;;2.00;99.90;;;;;;5013638;28;20029;-76
2023/01/20 03:57:42;;;;;;;7.18;6.47;;;2.00;99.90;;;;;;5013348;28;20037;-77
2023/01/20 04:00:10;;;;;;;8.95;7.25;;;1.90;99.90;;;;;;5015111;28;20018;-76
2023/01/20 04:02:37;;;;;;;10.02;7.47;;;1.90;99.90;;;;;;5010900;28;20434;-74
2023/01/20 04:05:05;;;;;;;7.93;7.22;;;1.80;99.90;;;;;;5016790;28;20097;-76
2023/01/20 04:07:31;;;;;;;7.55;6.85;;;1.80;99.90;;;;;;5010491;28;20023;-77
2023/01/20 04:10:03;;;;;;;7.07;6.57;;;1.70;99.90;;;;;;5017252;28;20014;-76
2023/01/20 04:12:29;;;;;;;7.43;6.70;;;1.70;99.90;;;;;;5009713;28;20056;-76
2023/01/20 04:14:54;;;;;;;7.90;6.40;;;1.70;99.90;;;;;;5011372;28;20627;-76
2023/01/20 04:17:20;;;;;;;6.05;5.55;;;1.60;99.90;;;;;;5012131;28;20033;-77
2023/01/20 04:19:47;;;;;;;7.10;6.30;;;1.60;99.90;;;;;;5014880;28;20508;-76
2023/01/20 04:22:15;;;;;;;6.57;6.07;;;1.60;99.90;;;;;;5013073;28;20032;-76
2023/01/20 04:24:51;;;;;;;7.10;6.50;;;1.60;99.90;;;;;;5005265;28;20033;-75
2023/01/20 04:27:17;;;;;;;6.93;6.22;;;1.60;99.90;;;;;;5013091;28;20177;-76
2023/01/20 04:29:43;;;;;;;9.75;7.00;;;1.60;99.90;;;;;;5006303;28;20030;-75
2023/01/20 04:32:11;;;;;;;8.52;7.43;;;1.50;99.90;;;;;;5012112;28;20061;-76
2023/01/20 04:34:37;;;;;;;7.63;6.97;;;1.60;99.90;;;;;;5015457;28;20022;-75
2023/01/20 04:37:02;;;;;;;7.47;6.70;;;1.60;99.90;;;;;;5013028;28;20028;-75
2023/01/20 04:39:28;;;;;;;9.40;7.22;;;1.60;99.90;;;;;;4997979;28;20093;-75
2023/01/20 04:41:54;;;;;;;7.90;7.20;;;1.60;99.90;;;;;;5009544;28;20077;-75
2023/01/20 04:44:20;;;;;;;6.55;6.05;;;1.70;99.90;;;;;;4999146;28;20080;-75
2023/01/20 04:46:46;;;;;;;6.60;6.10;;;1.70;99.90;;;;;;5009438;28;20041;-75
2023/01/20 04:49:12;;;;;;;6.85;6.25;;;1.70;99.90;;;;;;5005920;28;20026;-76
2023/01/20 04:51:38;;;;;;;8.35;6.78;;;1.80;99.90;;;;;;5010355;28;20497;-74
2023/01/20 04:54:04;;;;;;;5.40;5.03;;;1.80;99.90;;;;;;5009588;28;20022;-77
2023/01/20 04:56:30;;;;;;;6.95;6.35;;;1.90;99.90;;;;;;5015766;28;20032;-76
2023/01/20 04:58:56;;;;;;;6.90;6.20;;;1.90;99.90;;;;;;5009918;28;20133;-75
2023/01/20 05:01:21;;;;;;;6.63;6.13;;;1.90;99.90;;;;;;5017022;28;20029;-76
2023/01/20 05:03:47;;;;;;;6.20;5.47;;;1.90;99.90;;;;;;5010225;28;20049;-76
2023/01/20 05:06:13;;;;;;;7.03;6.32;;;2.00;99.90;;;;;;5015793;28;20034;-75
2023/01/20 05:08:39;;;;;;;6.38;5.78;;;2.00;99.90;;;;;;5009066;28;20391;-76
2023/01/20 05:11:05;;;;;;;7.88;6.50;;;2.00;99.90;;;;;;5016745;28;20044;-76
2023/01/20 05:13:32;;;;;;;7.65;6.88;;;2.00;99.90;;;;;;5010052;28;20054;-75
2023/01/20 05:15:58;;;;;;;7.28;5.80;;;2.00;99.90;;;;;;5011487;28;20034;-74
2023/01/20 05:18:23;;;;;;;7.47;6.78;;;2.00;99.90;;;;;;5003779;28;20081;-74
2023/01/20 05:20:49;;;;;;;6.45;5.95;;;2.00;99.90;;;;;;5011009;28;20037;-73
2023/01/20 05:23:16;;;;;;;6.75;6.07;;;2.00;99.90;;;;;;5005615;28;20022;-73
2023/01/20 05:25:42;;;;;;;6.45;5.95;;;2.00;99.90;;;;;;5011312;28;20034;-76
2023/01/20 05:28:07;;;;;;;7.00;6.40;;;2.00;99.90;;;;;;5008132;28;20400;-76
2023/01/20 05:30:33;;;;;;;6.68;6.07;;;2.00;99.90;;;;;;5014998;28;20089;-76
2023/01/20 05:32:59;;;;;;;8.10;6.32;;;2.00;99.90;;;;;;5013790;28;20105;-73
2023/01/20 05:35:25;;;;;;;9.55;6.53;;;2.00;99.90;;;;;;5015893;28;20038;-75
2023/01/20 05:37:54;;;;;;;6.40;5.90;;;2.00;99.90;;;;;;5014698;28;20392;-75
2023/01/20 05:40:20;;;;;;;7.82;6.40;;;1.90;99.90;;;;;;5016251;28;20026;-74
2023/01/20 05:42:45;;;;;;;7.13;6.60;;;1.90;99.90;;;;;;5009846;28;20018;-73
2023/01/20 05:45:11;;;;;;;7.70;5.45;;;1.90;99.90;;;;;;5010767;28;20029;-73
2023/01/20 05:47:37;;;;;;;6.43;5.82;;;1.90;99.90;;;;;;5013609;28;20056;-74
2023/01/20 05:50:03;;;;;;;7.03;6.43;;;1.90;99.90;;;;;;5011337;28;20046;-74
2023/01/20 05:52:29;;;;;;;6.60;5.97;;;1.90;99.90;;;;;;5011104;28;20026;-74
2023/01/20 05:54:55;;;;;;;7.57;6.72;;;1.90;99.90;;;;;;5019455;28;20044;-75
2023/01/20 05:57:24;;;;;;;6.85;6.18;;;1.90;99.90;;;;;;5014977;28;20026;-75
2023/01/20 05:59:51;;;;;;;6.93;6.32;;;1.90;99.90;;;;;;5018727;28;20061;-74
2023/01/20 06:02:19;;;;;;;6.68;5.78;;;1.90;99.90;;;;;;5015427;28;20044;-75
2023/01/20 06:04:45;;;;;;;8.10;5.55;;;1.90;99.90;;;;;;5017997;28;20040;-76
2023/01/20 06:07:11;;;;;;;7.22;6.60;;;1.90;99.90;;;;;;5016033;28;20090;-74
2023/01/20 06:09:37;;;;;;;8.38;6.60;;;2.00;99.90;;;;;;5016826;28;20459;-74
2023/01/20 06:12:03;;;;;;;7.43;6.65;;;1.90;99.90;;;;;;5017122;28;20081;-74
2023/01/20 06:14:28;;;;;;;11.85;6.57;;;1.90;99.90;;;;;;5025777;28;20031;-75
2023/01/20 06:16:54;;;;;;;7.15;6.45;;;1.90;99.90;;;;;;5016385;28;20528;-74
2023/01/20 06:19:20;;;;;;;6.85;6.25;;;1.90;99.90;;;;;;5002721;28;20022;-74
2023/01/20 06:21:46;;;;;;;7.18;6.38;;;1.90;99.90;;;;;;5016064;28;20505;-74
2023/01/20 06:24:12;;;;;;;12.05;7.38;;;1.90;99.90;;;;;;5013633;28;20029;-74
2023/01/20 06:26:38;;;;;;;9.98;6.38;;;1.90;99.90;;;;;;5016698;28;20026;-74
2023/01/20 06:29:03;;;;;;;7.35;6.65;;;1.90;99.90;;;;;;5012909;28;20027;-75
2023/01/20 06:31:29;;;;;;;8.57;6.60;;;1.90;99.90;;;;;;5018896;28;20033;-74
2023/01/20 06:33:57;;;;;;;9.23;7.30;;;1.90;99.90;;;;;;5015976;28;20042;-74
2023/01/20 06:36:24;;;;;;;12.65;7.80;;;1.90;99.90;;;;;;5018249;28;20141;-74
2023/01/20 06:38:49;;;;;;;9.10;8.20;;;1.90;99.90;;;;;;5008062;28;20057;-75
2023/01/20 06:41:16;;;;;;;7.80;7.13;;;1.90;99.90;;;;;;5019526;28;20068;-75
2023/01/20 06:43:42;;;;;;;13.88;7.72;;;1.90;99.90;;;;;;5007191;28;20034;-74
2023/01/20 06:46:13;;;;;;;8.98;7.55;;;1.90;99.90;;;;;;5007270;28;20410;-75
2023/01/20 06:48:40;;;;;;;13.35;8.27;;;1.90;99.90;;;;;;5012840;28;20085;-74
2023/01/20 06:51:11;;;;;;;8.75;7.35;;;1.90;99.90;;;;;;5018912;28;20042;-74
2023/01/20 06:53:37;;;;;;;9.43;7.05;;;1.90;99.90;;;;;;5009284;28;20040;-75
2023/01/20 06:56:03;;;;;;;6.95;6.25;;;1.90;99.90;;;;;;5009829;28;20086;-75
2023/01/20 06:58:31;;;;;;;9.32;7.10;;;1.80;99.90;;;;;;5011980;28;20513;-74
2023/01/20 07:01:02;;;;;;;11.15;7.53;;;1.80;99.90;;;;;;5009078;28;20505;-74
2023/01/20 07:03:27;;;;;;;10.80;8.88;;;1.80;99.90;;;;;;5011742;28;20022;-74
2023/01/20 07:06:15;;;;;;;7.93;7.18;;;1.80;99.90;;;;;;5016765;28;20026;-74
2023/01/20 07:08:45;;;;;;;11.82;8.77;;;1.80;99.90;;;;;;5011250;28;20053;-74
2023/01/20 07:11:11;;;;;;;8.57;7.45;;;1.80;99.90;;;;;;5029412;28;20022;-74
2023/01/20 07:13:37;;;;;;;10.38;7.75;;;1.80;99.90;;;;;;5011773;28;20037;-74
2023/01/20 07:16:03;;;;;;;8.40;7.60;;;1.80;99.90;;;;;;5013593;28;20030;-74
2023/01/20 07:18:29;;;;;;;11.55;7.60;;;1.80;99.90;;;;;;5005422;28;20058;-74
2023/01/20 07:20:55;;;;;;;10.65;7.78;;;1.80;99.90;;;;;;5016015;28;20036;-74
2023/01/20 07:23:22;;;;;;;9.30;6.85;;;1.80;99.90;;;;;;5009763;28;20114;-74
2023/01/20 07:25:55;;;;;;;8.25;6.30;;;1.80;99.90;;;;;;5016215;28;20092;-74
2023/01/20 07:28:21;;;;;;;9.45;7.32;;;1.80;99.90;;;;;;5008842;28;20050;-74
2023/01/20 07:30:46;;;;;;;13.50;9.10;;;1.80;99.90;;;;;;5014908;28;20018;-74
2023/01/20 07:33:12;;;;;;;12.30;8.48;;;1.80;99.90;;;;;;5010655;28;20030;-74
2023/01/20 07:35:38;;;;;;;12.98;7.15;;;1.80;99.90;;;;;;5014822;28;20045;-75
2023/01/20 07:38:03;;;;;;;8.85;7.70;;;1.80;99.90;;;;;;5007498;28;20034;-74
2023/01/20 07:40:29;;;;;;;8.88;7.97;;;1.80;99.90;;;;;;5017527;28;20022;-74
2023/01/20 07:42:55;;;;;;;17.45;8.55;;;1.90;99.90;;;;;;5008642;28;20429;-74
2023/01/20 07:45:20;;;;;;;8.25;7.45;;;1.90;99.90;;;;;;5017900;28;20034;-75
2023/01/20 07:47:46;;;;;;;19.25;9.45;;;1.90;99.90;;;;;;5012517;28;20058;-73
2023/01/20 07:50:12;;;;;;;8.73;7.85;;;1.90;99.90;;;;;;5006251;28;20080;-75
2023/01/20 07:52:38;;;;;;;12.57;8.27;;;1.90;99.90;;;;;;5010151;28;20436;-74
2023/01/20 07:55:04;;;;;;;14.93;7.40;;;1.90;99.90;;;;;;5017602;28;20033;-75
2023/01/20 07:57:29;;;;;;;13.02;8.48;;;1.90;99.90;;;;;;5011847;28;20026;-74
2023/01/20 07:59:55;;;;;;;11.98;8.13;;;1.90;99.90;;;;;;5009175;28;20027;-75
2023/01/20 08:02:21;;;;;;;10.27;7.63;;;2.00;99.90;;;;;;5013080;28;20025;-74
2023/01/20 08:04:46;;;;;;;11.82;8.77;;;2.00;99.90;;;;;;5015842;28;20030;-74
2023/01/20 08:07:12;;;;;;;20.05;10.00;;;2.00;99.90;;;;;;5011223;28;20027;-74
2023/01/20 08:09:40;;;;;;;12.63;9.10;;;2.00;99.90;;;;;;5014558;28;20148;-74
2023/01/20 08:12:06;;;;;;;14.57;8.82;;;2.00;99.90;;;;;;5014870;28;20549;-74
2023/01/20 08:14:31;;;;;;;13.20;8.07;;;2.00;99.90;;;;;;5015817;28;20038;-74
2023/01/20 08:16:58;;;;;;;11.85;8.20;;;2.00;99.90;;;;;;5015282;28;20022;-74
2023/01/20 08:19:28;;;;;;;11.02;8.45;;;2.00;99.90;;;;;;5006467;28;20033;-73
2023/01/20 08:21:54;;;;;;;19.60;9.67;;;2.00;99.90;;;;;;5015578;28;20068;-74
2023/01/20 08:24:20;;;;;;;14.98;9.27;;;2.00;99.90;;;;;;5003746;28;20022;-73
2023/01/20 08:26:45;;;;;;;18.77;10.93;;;2.10;99.90;;;;;;5013961;28;20052;-71
2023/01/20 08:29:11;;;;;;;12.23;9.30;;;2.10;99.90;;;;;;5013442;28;20018;-71
2023/01/20 08:31:37;;;;;;;15.95;8.80;;;2.10;99.90;;;;;;5015092;28;20037;-72
2023/01/20 08:34:04;;;;;;;14.43;8.85;;;2.10;99.90;;;;;;5007053;28;20041;-73
2023/01/20 08:36:33;;;;;;;16.13;9.45;;;2.10;99.90;;;;;;5016015;28;20391;-72
2023/01/20 08:39:01;;;;;;;10.02;9.00;;;2.20;99.90;;;;;;5000810;28;20038;-71
2023/01/20 08:41:33;;;;;;;9.30;8.23;;;2.20;99.90;;;;;;5013904;28;20030;-71
2023/01/20 08:44:01;;;;;;;8.20;7.43;;;2.20;99.90;;;;;;5024531;28;20030;-71
2023/01/20 08:46:27;;;;;;;9.65;7.60;;;2.20;99.90;;;;;;5017042;28;20080;-72
2023/01/20 08:48:54;;;;;;;15.05;9.68;;;2.20;99.90;;;;;;5012758;28;20026;-71
2023/01/20 08:51:29;;;;;;;12.00;8.85;;;2.20;99.90;;;;;;5015139;28;20084;-71
2023/01/20 08:53:55;;;;;;;11.52;7.80;;;2.30;99.90;;;;;;5012850;28;20026;-71
2023/01/20 08:56:21;;;;;;;14.73;9.20;;;2.30;99.90;;;;;;5014604;28;20057;-72
2023/01/20 08:58:47;;;;;;;9.20;8.23;;;2.30;99.90;;;;;;5010747;28;20018;-71
2023/01/20 09:01:16;;;;;;;11.38;9.18;;;2.30;99.90;;;;;;5016026;28;20029;-70
2023/01/20 09:03:43;;;;;;;8.52;7.60;;;2.40;99.90;;;;;;5008796;28;20171;-71
2023/01/20 09:06:09;;;;;;;11.52;8.40;;;2.40;99.90;;;;;;5015658;28;20140;-71
2023/01/20 09:08:36;;;;;;;9.20;7.30;;;2.40;99.90;;;;;;5013125;28;20089;-71
2023/01/20 09:11:02;;;;;;;15.20;10.60;;;2.40;99.90;;;;;;5015463;28;20032;-71
2023/01/20 09:13:28;;;;;;;15.57;8.73;;;2.50;99.90;;;;;;5009769;28;20483;-72
2023/01/20 09:15:54;;;;;;;13.07;8.52;;;2.50;99.90;;;;;;5014284;28;20406;-71
2023/01/20 09:18:19;;;;;;;10.23;7.90;;;2.50;99.90;;;;;;5007511;28;20026;-72
2023/01/20 09:20:45;;;;;;;11.30;8.73;;;2.50;99.90;;;;;;5015219;28;20511;-72
2023/01/20 09:23:11;;;;;;;12.57;9.90;;;2.50;99.90;;;;;;5007818;28;20023;-72
2023/01/20 09:25:36;;;;;;;9.05;7.93;;;2.50;99.90;;;;;;5010651;28;20033;-72
2023/01/20 09:28:02;;;;;;;9.95;9.05;;;2.60;99.90;;;;;;5003554;28;20509;-72
2023/01/20 09:30:28;;;;;;;9.73;8.05;;;2.60;99.90;;;;;;5013965;28;20029;-72
2023/01/20 09:32:56;;;;;;;11.85;7.70;;;2.70;99.90;;;;;;5015735;28;20124;-71
2023/01/20 09:35:21;;;;;;;14.57;8.43;;;2.70;99.90;;;;;;5014270;28;20426;-71
2023/01/20 09:43:53;;;;;;;12.57;8.30;;;2.80;99.90;;;;;;5015796;28;20106;-74
2023/01/20 09:46:27;;;;;;;10.85;8.57;;;2.80;99.90;;;;;;5011757;28;20022;-73
2023/01/20 09:55:03;;;;;;;10.98;8.10;;;3.00;99.90;;;;;;5019218;28;20069;-74
2023/01/20 09:57:35;;;;;;;13.95;9.73;;;3.00;99.90;;;;;;5016203;28;20033;-73
2023/01/20 10:00:08;;;;;;;16.00;8.98;;;3.00;99.90;;;;;;5012173;28;20117;-73
2023/01/20 10:02:35;;;;;;;8.95;8.05;;;3.10;99.90;;;;;;5014090;28;20021;-73
2023/01/20 10:05:12;;;;;;;14.25;9.05;;;3.10;99.90;;;;;;5018242;28;20486;-73
2023/01/20 10:08:00;;;;;;;13.40;9.43;;;3.10;99.90;;;;;;5014146;28;20046;-73
2023/01/20 10:10:28;;;;;;;10.02;8.65;;;3.10;99.90;;;;;;5014690;28;20056;-73
2023/01/20 10:13:26;;;;;;;11.73;9.57;;;3.20;99.90;;;;;;5014197;28;20088;-73
2023/01/20 10:15:54;;;;;;;10.70;8.18;;;3.20;99.90;;;;;;5015895;28;20030;-73
2023/01/20 10:18:28;;;;;;;9.38;7.28;;;3.20;99.90;;;;;;5016037;28;20030;-73
2023/01/20 10:21:24;;;;;;;9.25;6.30;;;3.20;99.90;;;;;;5016389;28;20137;-74
2023/01/20 10:24:09;;;;;;;6.85;6.07;;;3.20;99.90;;;;;;5008677;28;20045;-73
2023/01/20 10:26:49;;;;;;;8.27;6.13;;;3.20;99.90;;;;;;5016299;28;20027;-73
2023/01/20 10:29:25;;;;;;;7.43;6.68;;;3.20;99.90;;;;;;5014329;28;20033;-73
2023/01/20 10:32:01;;;;;;;11.55;7.75;;;3.30;99.90;;;;;;5015852;28;20072;-74
2023/01/20 10:34:38;;;;;;;7.13;5.72;;;3.30;99.90;;;;;;5014993;28;20482;-74
2023/01/20 10:37:08;;;;;;;10.20;6.80;;;3.40;99.90;;;;;;5016198;28;20030;-75
2023/01/20 10:39:54;;;;;;;13.20;6.57;;;3.50;99.90;;;;;;5014080;28;20141;-74
2023/01/20 10:42:20;;;;;;;6.53;5.93;;;3.50;99.90;;;;;;5014859;28;20050;-73
2023/01/20 10:44:48;;;;;;;10.00;6.22;;;3.60;99.90;;;;;;5017579;28;20038;-73
2023/01/20 10:47:16;;;;;;;9.48;5.97;;;3.70;99.90;;;;;;5016143;28;20057;-73
2023/01/20 10:50:03;;;;;;;7.78;6.28;;;3.70;99.90;;;;;;5015572;28;20572;-73
2023/01/20 10:52:51;;;;;;;6.80;6.18;;;3.70;99.90;;;;;;5009606;28;20041;-73
2023/01/20 10:55:17;;;;;;;8.98;6.05;;;3.80;99.90;;;;;;5016013;28;20036;-75
2023/01/20 10:57:47;;;;;;;9.88;5.90;;;3.90;99.90;;;;;;5014433;28;21556;-73
2023/01/20 11:00:22;;;;;;;8.18;6.38;;;3.90;99.90;;;;;;5015693;28;20054;-73
2023/01/20 11:02:48;;;;;;;9.23;5.85;;;3.90;99.90;;;;;;5015317;28;20029;-73
2023/01/20 11:05:44;;;;;;;9.05;7.22;;;4.00;99.90;;;;;;5017728;28;20045;-73
2023/01/20 11:08:22;;;;;;;10.20;6.38;;;4.00;99.90;;;;;;5014820;28;20037;-73
2023/01/20 11:10:55;;;;;;;6.55;5.07;;;4.00;99.90;;;;;;5016720;28;20078;-74
2023/01/20 11:13:21;;;;;;;6.60;6.00;;;4.00;99.90;;;;;;5026009;28;20072;-73
2023/01/20 11:16:00;;;;;;;6.97;5.82;;;3.90;99.90;;;;;;5015295;28;20064;-73
2023/01/20 11:18:29;;;;;;;8.38;5.72;;;3.90;99.90;;;;;;5010148;28;20032;-73
2023/01/20 11:20:57;;;;;;;7.05;5.65;;;4.00;99.90;;;;;;5014663;28;20048;-73
2023/01/20 11:23:37;;;;;;;10.70;7.03;;;4.10;99.90;;;;;;5015132;28;20021;-73
2023/01/20 11:26:08;;;;;;;23.33;10.87;;;4.00;99.90;;;;;;5015463;28;20030;-73
2023/01/20 11:28:48;;;;;;;5.97;5.32;;;4.00;99.90;;;;;;5011165;28;20026;-73
2023/01/20 11:31:14;;;;;;;7.43;6.05;;;4.00;99.90;;;;;;5016499;28;20022;-73
2023/01/20 11:33:57;;;;;;;6.78;6.05;;;4.00;99.90;;;;;;5013932;28;20559;-72
2023/01/20 11:36:24;;;;;;;5.90;5.38;;;4.10;99.90;;;;;;5013854;28;20033;-73
2023/01/20 11:38:51;;;;;;;6.65;5.90;;;4.10;99.90;;;;;;5011526;28;20036;-73
2023/01/20 11:41:20;;;;;;;8.65;5.70;;;4.10;99.90;;;;;;5016793;28;20029;-73
2023/01/20 11:43:46;;;;;;;10.40;5.97;;;4.10;99.90;;;;;;5012164;28;20049;-73
2023/01/20 11:46:21;;;;;;;6.10;5.50;;;4.30;99.90;;;;;;5015344;28;20036;-73
2023/01/20 11:48:48;;;;;;;5.50;4.75;;;4.40;99.90;;;;;;5014548;28;20493;-72
2023/01/20 11:51:19;;;;;;;8.48;6.25;;;4.60;99.90;;;;;;5015587;28;20052;-73
2023/01/20 11:53:45;;;;;;;7.28;5.22;;;4.50;99.90;;;;;;5013898;28;20025;-73
2023/01/20 11:56:15;;;;;;;12.98;6.28;;;4.60;99.90;;;;;;5014843;28;20022;-73
2023/01/20 11:58:54;;;;;;;5.85;5.35;;;4.60;99.90;;;;;;5010692;28;20112;-73
2023/01/20 12:02:00;;;;;;;7.20;5.03;;;4.50;99.90;;;;;;5012717;28;20513;-73
2023/01/20 12:05:16;;;;;;;5.78;5.28;;;4.50;99.90;;;;;;5011701;28;20022;-73
2023/01/20 12:07:46;;;;;;;9.55;6.70;;;4.50;99.90;;;;;;5022849;28;20096;-73
2023/01/20 12:10:19;;;;;;;15.02;6.85;;;4.50;99.90;;;;;;5015220;28;20018;-73
2023/01/20 12:13:21;;;;;;;9.68;6.40;;;4.50;99.90;;;;;;5010230;28;20022;-73
2023/01/20 12:15:53;;;;;;;6.90;6.20;;;4.50;99.90;;;;;;4998327;28;20061;-73
2023/01/20 12:18:33;;;;;;;7.45;5.65;;;4.60;99.90;;;;;;5012072;28;20034;-73
2023/01/20 12:21:17;;;;;;;6.60;5.78;;;4.50;99.90;;;;;;5029734;28;20112;-73
2023/01/20 12:23:57;;;;;;;6.28;5.47;;;4.70;99.90;;;;;;5011978;28;20530;-73
2023/01/20 12:26:24;;;;;;;7.78;5.60;;;4.80;99.90;;;;;;5028496;28;20022;-73
2023/01/20 12:28:53;;;;;;;8.63;6.05;;;4.70;99.90;;;;;;5009929;28;20022;-72
2023/01/20 12:31:24;;;;;;;5.97;5.38;;;4.70;99.90;;;;;;5015414;28;20025;-73
2023/01/20 12:33:58;;;;;;;10.68;5.75;;;4.80;99.90;;;;;;5012364;28;20037;-73
2023/01/20 12:36:23;;;;;;;8.00;4.90;;;5.00;99.90;;;;;;5016016;28;20076;-73
2023/01/20 12:39:16;;;;;;;9.55;5.75;;;5.10;99.90;;;;;;5012950;28;20045;-73
2023/01/20 12:42:04;;;;;;;8.05;5.97;;;5.00;99.90;;;;;;5012031;28;20671;-73
2023/01/20 12:44:45;;;;;;;8.07;6.28;;;4.80;99.90;;;;;;5024931;28;20030;-73
2023/01/20 12:47:13;;;;;;;9.00;6.60;;;4.70;99.90;;;;;;5013997;28;20018;-73
2023/01/20 12:49:46;;;;;;;5.93;5.43;;;4.70;99.90;;;;;;5011006;28;20101;-74
2023/01/20 12:52:20;;;;;;;8.48;6.30;;;4.70;99.90;;;;;;5012523;28;20034;-73
2023/01/20 12:55:04;;;;;;;8.57;6.03;;;4.70;99.90;;;;;;5013332;28;20121;-73
2023/01/20 12:57:58;;;;;;;7.85;5.18;;;4.70;99.90;;;;;;5011102;28;20030;-73
2023/01/20 13:00:51;;;;;;;8.20;5.15;;;4.70;99.90;;;;;;5026880;28;20018;-73
2023/01/20 13:03:54;;;;;;;6.03;5.22;;;4.80;99.90;;;;;;5029782;28;20022;-74
2023/01/20 13:07:07;;;;;;;6.25;5.32;;;4.80;99.90;;;;;;5019467;28;20080;-74
2023/01/20 13:10:11;;;;;;;6.40;5.75;;;4.70;99.90;;;;;;5014290;28;20449;-73
2023/01/20 13:12:52;;;;;;;10.63;6.50;;;4.70;99.90;;;;;;5011624;28;20088;-72
2023/01/20 13:15:28;;;;;;;9.38;6.22;;;4.60;99.90;;;;;;5016751;28;20446;-73
2023/01/20 13:18:00;;;;;;;9.20;6.45;;;4.60;99.90;;;;;;5016393;28;20022;-73
2023/01/20 13:20:28;;;;;;;11.20;7.95;;;4.60;99.90;;;;;;5017954;28;20050;-73
2023/01/20 13:23:03;;;;;;;14.35;10.55;;;4.50;99.90;;;;;;5016046;28;20064;-73
2023/01/20 13:25:31;;;;;;;14.05;7.50;;;4.50;99.90;;;;;;5017928;28;20030;-73